Time;durP1;ratioP1;P1;durP2;ratioP2;P2;SDS_P1;SDS_P2;PMS_P1;PMS_P2;Temp;Humidity;BMP_temperature;BMP_pressure;BME280_temperature;BME280_humidity;BME280_pressure;Samples;Min_cycle;Max_cycle;Signal;HPM_P1;HPM_P2
2022/04/04 00:01:52;;;;;;;2.08;0.88;;;10.00;59.00;;;;;;5057899;28;20063;-72
2022/04/04 00:04:19;;;;;;;1.55;0.80;;;10.00;59.00;;;;;;5032824;28;20057;-72
2022/04/04 00:06:46;;;;;;;1.30;0.90;;;10.00;59.00;;;;;;5038023;28;20059;-74
2022/04/04 00:09:13;;;;;;;1.95;0.70;;;9.90;59.80;;;;;;5052338;28;20037;-74
2022/04/04 00:11:42;;;;;;;2.53;1.00;;;9.90;59.70;;;;;;5049811;28;20049;-71
2022/04/04 00:14:11;;;;;;;1.05;0.60;;;9.90;59.70;;;;;;5033375;28;20036;-72
2022/04/04 00:16:51;;;;;;;1.92;0.93;;;9.90;59.70;;;;;;5050804;28;20190;-72
2022/04/04 00:19:18;;;;;;;1.73;0.95;;;9.90;59.80;;;;;;5052610;28;20044;-74
2022/04/04 00:21:45;;;;;;;1.40;1.00;;;9.90;59.70;;;;;;5040416;28;20422;-72
2022/04/04 00:24:12;;;;;;;1.27;0.85;;;9.90;59.80;;;;;;5059871;28;20056;-71
2022/04/04 00:26:40;;;;;;;1.42;0.80;;;9.90;59.80;;;;;;5062810;28;20053;-73
2022/04/04 00:29:07;;;;;;;1.35;0.70;;;9.90;59.80;;;;;;5062193;28;20041;-74
2022/04/04 00:31:34;;;;;;;1.30;0.70;;;9.90;59.70;;;;;;5058717;28;20131;-74
2022/04/04 00:34:01;;;;;;;1.55;0.80;;;9.90;59.70;;;;;;5052164;28;20059;-72
2022/04/04 00:36:28;;;;;;;0.88;0.65;;;9.90;59.70;;;;;;5054198;28;20036;-75
2022/04/04 00:38:55;;;;;;;1.38;0.60;;;9.90;59.70;;;;;;5042252;28;20064;-73
2022/04/04 00:41:22;;;;;;;1.40;0.82;;;9.90;59.70;;;;;;5053670;28;20097;-74
2022/04/04 00:43:53;;;;;;;1.67;0.90;;;9.90;59.70;;;;;;5029057;28;20037;-73
2022/04/04 00:46:20;;;;;;;1.50;0.88;;;9.90;59.70;;;;;;5058131;28;20130;-74
2022/04/04 00:48:47;;;;;;;1.67;0.70;;;9.90;59.70;;;;;;5047578;28;20047;-75
2022/04/04 00:51:14;;;;;;;2.17;0.98;;;9.90;60.20;;;;;;5031481;28;20757;-74
2022/04/04 00:53:41;;;;;;;2.05;1.00;;;9.90;59.70;;;;;;5047252;28;20048;-73
2022/04/04 00:56:11;;;;;;;1.48;0.75;;;9.90;59.70;;;;;;5055709;28;20079;-74
2022/04/04 00:58:41;;;;;;;1.40;0.70;;;9.90;59.70;;;;;;5056463;28;20037;-75
2022/04/04 01:01:10;;;;;;;2.03;0.90;;;9.90;59.70;;;;;;5051169;28;20424;-73
2022/04/04 01:03:37;;;;;;;1.40;0.77;;;9.90;59.70;;;;;;5050096;28;20049;-75
2022/04/04 01:06:04;;;;;;;1.80;0.70;;;9.90;59.60;;;;;;5061017;28;20123;-73
2022/04/04 01:08:31;;;;;;;1.65;0.88;;;9.90;59.60;;;;;;5077312;28;20274;-72
2022/04/04 01:10:59;;;;;;;1.73;0.75;;;9.90;59.70;;;;;;5073406;28;20045;-73
2022/04/04 01:13:26;;;;;;;1.23;0.73;;;9.90;59.70;;;;;;5031202;28;20041;-71
2022/04/04 01:15:52;;;;;;;1.02;0.77;;;9.90;59.70;;;;;;5059715;28;20043;-75
2022/04/04 01:18:21;;;;;;;1.20;0.80;;;9.90;59.60;;;;;;5060276;28;20044;-73
2022/04/04 01:20:48;;;;;;;1.27;0.82;;;9.90;59.60;;;;;;5043370;28;20090;-73
2022/04/04 01:23:23;;;;;;;1.40;0.90;;;9.90;59.60;;;;;;5049797;28;20051;-73
2022/04/04 01:25:51;;;;;;;1.45;0.90;;;9.90;59.60;;;;;;5053225;28;20120;-71
2022/04/04 01:28:19;;;;;;;1.02;0.73;;;9.90;59.60;;;;;;5049414;28;20813;-74
2022/04/04 01:30:49;;;;;;;1.67;0.77;;;9.90;59.60;;;;;;5052680;28;20068;-73
2022/04/04 01:33:16;;;;;;;1.70;0.90;;;9.90;59.60;;;;;;5051289;28;20044;-72
2022/04/04 01:35:44;;;;;;;1.20;0.80;;;9.90;59.60;;;;;;5054859;28;20068;-74
2022/04/04 01:38:11;;;;;;;1.40;0.80;;;9.90;59.60;;;;;;5051079;28;20050;-74
2022/04/04 01:40:37;;;;;;;1.88;0.80;;;9.90;59.60;;;;;;5047888;28;20045;-72
2022/04/04 01:43:06;;;;;;;1.17;0.80;;;9.90;59.60;;;;;;5057348;28;20110;-73
2022/04/04 01:48:17;;;;;;;1.35;0.90;;;9.90;59.60;;;;;;5061486;28;20072;-73
2022/04/04 01:50:44;;;;;;;2.95;0.90;;;9.80;59.50;;;;;;5067522;28;20155;-71
2022/04/04 01:53:26;;;;;;;1.00;0.70;;;9.90;59.60;;;;;;5054925;28;20048;-72
2022/04/04 01:55:54;;;;;;;1.58;1.00;;;9.90;59.60;;;;;;5057611;28;20036;-76
2022/04/04 01:58:23;;;;;;;2.00;1.00;;;9.90;59.50;;;;;;5052968;28;20056;-73
2022/04/04 02:00:50;;;;;;;1.23;0.80;;;9.90;59.60;;;;;;5036048;28;20446;-72
2022/04/04 02:03:17;;;;;;;1.08;0.68;;;9.80;59.40;;;;;;5059090;28;20044;-72
2022/04/04 02:05:44;;;;;;;1.50;0.93;;;9.90;59.50;;;;;;5036473;28;20049;-75
2022/04/04 02:08:11;;;;;;;2.17;1.00;;;9.90;59.60;;;;;;5030501;28;20107;-73
2022/04/04 02:10:38;;;;;;;1.10;0.80;;;9.90;59.50;;;;;;5050153;28;20120;-72
2022/04/04 02:13:05;;;;;;;2.03;0.80;;;9.90;59.60;;;;;;5051601;28;20052;-73
2022/04/04 02:15:33;;;;;;;1.48;0.90;;;9.90;59.50;;;;;;5049710;28;20060;-73
2022/04/04 02:18:00;;;;;;;1.73;1.00;;;9.90;59.50;;;;;;5051863;28;20041;-71
2022/04/04 02:20:27;;;;;;;2.10;0.93;;;9.90;59.50;;;;;;5034658;28;20044;-74
2022/04/04 02:22:54;;;;;;;1.83;0.90;;;9.80;59.40;;;;;;5031357;28;20036;-73
2022/04/04 02:25:22;;;;;;;1.35;0.88;;;9.90;59.50;;;;;;5046533;28;20053;-71
2022/04/04 02:27:49;;;;;;;2.05;0.98;;;9.90;59.50;;;;;;5055545;28;20072;-75
2022/04/04 02:30:16;;;;;;;2.75;1.00;;;9.90;59.50;;;;;;5052524;28;20048;-71
2022/04/04 02:32:44;;;;;;;1.45;0.95;;;9.90;59.50;;;;;;5055799;28;20045;-72
2022/04/04 02:35:11;;;;;;;2.65;1.08;;;9.90;59.40;;;;;;5056138;28;20056;-73
2022/04/04 02:37:38;;;;;;;1.60;0.95;;;9.90;59.40;;;;;;5055840;28;20040;-73
2022/04/04 02:40:06;;;;;;;1.88;0.90;;;9.80;59.40;;;;;;5051472;28;20159;-76
2022/04/04 02:42:33;;;;;;;1.95;0.82;;;9.90;59.40;;;;;;5025861;28;20045;-72
2022/04/04 02:45:00;;;;;;;1.92;1.10;;;9.80;59.30;;;;;;5059254;28;20048;-75
2022/04/04 02:47:28;;;;;;;1.90;1.10;;;9.90;59.40;;;;;;5056076;28;20051;-72
2022/04/04 02:49:56;;;;;;;1.90;1.10;;;9.80;59.30;;;;;;5059270;28;20487;-73
2022/04/04 02:52:22;;;;;;;1.60;1.10;;;9.90;59.40;;;;;;5057767;28;20036;-72
2022/04/04 02:54:49;;;;;;;2.00;0.90;;;9.80;59.30;;;;;;5061706;28;20044;-72
2022/04/04 02:57:17;;;;;;;2.28;1.00;;;9.80;59.40;;;;;;5062678;28;20120;-72
2022/04/04 02:59:44;;;;;;;2.88;1.20;;;9.80;59.30;;;;;;5060488;28;20051;-73
2022/04/04 03:02:12;;;;;;;1.90;1.30;;;9.80;59.30;;;;;;5056872;28;20132;-73
2022/04/04 03:04:40;;;;;;;1.27;0.90;;;9.80;59.30;;;;;;5058043;28;20557;-73
2022/04/04 03:07:08;;;;;;;2.20;0.90;;;9.80;59.30;;;;;;5057359;28;20048;-74
2022/04/04 03:09:35;;;;;;;2.00;1.00;;;9.80;59.30;;;;;;5050883;28;20044;-74
2022/04/04 03:12:02;;;;;;;1.38;1.00;;;9.80;59.30;;;;;;5045309;28;20052;-73
2022/04/04 03:14:29;;;;;;;1.90;1.20;;;9.80;59.30;;;;;;5054591;28;20106;-73
2022/04/04 03:16:56;;;;;;;1.15;0.80;;;9.80;59.30;;;;;;5040461;28;20043;-72
2022/04/04 03:19:23;;;;;;;1.55;0.98;;;9.80;59.30;;;;;;5052733;28;20041;-73
2022/04/04 03:21:51;;;;;;;1.60;1.00;;;9.80;59.30;;;;;;5049682;28;20077;-73
2022/04/04 03:24:19;;;;;;;1.40;1.10;;;9.80;59.30;;;;;;5055311;28;20040;-74
2022/04/04 03:26:46;;;;;;;1.48;0.90;;;9.80;59.30;;;;;;5054796;28;20144;-72
2022/04/04 03:29:13;;;;;;;2.25;0.88;;;9.80;59.30;;;;;;5049588;28;20045;-72
2022/04/04 03:31:40;;;;;;;1.38;0.85;;;9.80;59.30;;;;;;5055631;28;20051;-75
2022/04/04 03:34:07;;;;;;;2.42;1.10;;;9.80;59.30;;;;;;5051284;28;20047;-75
2022/04/04 03:36:34;;;;;;;1.58;0.90;;;9.80;59.30;;;;;;5053346;28;20046;-72
2022/04/04 03:39:01;;;;;;;1.80;1.10;;;9.80;59.40;;;;;;5059309;28;20037;-74
2022/04/04 03:41:29;;;;;;;1.70;0.90;;;9.80;59.30;;;;;;5060326;28;20044;-75
2022/04/04 03:43:56;;;;;;;1.70;1.10;;;9.80;59.30;;;;;;5060554;28;20057;-73
2022/04/04 03:46:22;;;;;;;2.55;0.90;;;9.80;59.30;;;;;;5058498;28;20127;-72
2022/04/04 03:48:49;;;;;;;1.40;0.90;;;9.80;59.30;;;;;;5054238;28;20044;-72
2022/04/04 03:51:16;;;;;;;1.30;1.00;;;9.80;59.30;;;;;;5052744;28;20045;-71
2022/04/04 03:53:43;;;;;;;1.30;0.95;;;9.80;59.30;;;;;;5053029;28;20041;-73
2022/04/04 03:56:11;;;;;;;1.88;0.90;;;9.80;59.30;;;;;;5055602;28;20040;-73
2022/04/04 03:58:39;;;;;;;1.45;1.05;;;9.80;59.30;;;;;;5052992;28;20032;-74
2022/04/04 04:01:06;;;;;;;1.75;1.15;;;9.80;59.30;;;;;;5062056;28;20056;-74
2022/04/04 04:03:34;;;;;;;1.60;1.00;;;9.80;59.30;;;;;;5041494;28;20082;-73
2022/04/04 04:06:12;;;;;;;1.92;1.00;;;9.80;59.30;;;;;;5049460;28;20047;-74
2022/04/04 04:08:40;;;;;;;1.35;0.90;;;9.80;59.30;;;;;;5047929;28;20547;-74
2022/04/04 04:11:07;;;;;;;1.50;1.10;;;9.80;59.30;;;;;;5056151;28;20040;-73
2022/04/04 04:13:34;;;;;;;3.45;1.05;;;9.80;59.30;;;;;;5034726;28;20048;-72
2022/04/04 04:16:03;;;;;;;1.75;1.00;;;9.80;59.30;;;;;;5054244;28;20041;-72
2022/04/04 04:18:30;;;;;;;1.73;1.00;;;9.80;59.30;;;;;;5033061;28;20052;-72
2022/04/04 04:20:57;;;;;;;1.38;0.90;;;9.80;59.30;;;;;;5058831;28;20326;-73
2022/04/04 04:23:24;;;;;;;1.73;0.93;;;9.80;59.30;;;;;;5046494;28;20049;-75
2022/04/04 04:25:51;;;;;;;1.40;1.10;;;9.80;59.30;;;;;;5055986;28;20135;-75
2022/04/04 04:28:19;;;;;;;1.40;0.98;;;9.80;59.30;;;;;;5056218;28;20522;-73
2022/04/04 04:30:46;;;;;;;1.23;0.80;;;9.80;59.30;;;;;;5048277;28;20032;-73
2022/04/04 04:33:14;;;;;;;1.92;1.25;;;9.80;59.30;;;;;;5035987;28;20507;-72
2022/04/04 04:35:51;;;;;;;1.65;0.90;;;9.80;59.30;;;;;;5036492;28;20074;-72
2022/04/04 04:38:19;;;;;;;1.65;0.93;;;9.80;59.30;;;;;;5052018;28;20518;-73
2022/04/04 04:40:48;;;;;;;1.52;0.95;;;9.80;59.30;;;;;;5060919;28;20052;-74
2022/04/04 04:43:15;;;;;;;1.80;0.90;;;9.80;59.30;;;;;;5055636;28;20047;-72
2022/04/04 04:45:42;;;;;;;1.60;1.00;;;9.80;59.30;;;;;;5060454;28;20131;-76
2022/04/04 04:48:10;;;;;;;1.42;0.90;;;9.80;59.30;;;;;;5045978;28;20048;-76
2022/04/04 04:50:42;;;;;;;1.92;0.98;;;9.80;59.30;;;;;;5059889;28;20049;-75
2022/04/04 04:53:15;;;;;;;2.50;1.10;;;9.80;59.30;;;;;;5041272;28;20051;-73
2022/04/04 04:55:51;;;;;;;1.20;0.80;;;9.70;59.10;;;;;;5044359;28;20113;-76
2022/04/04 04:58:18;;;;;;;1.60;0.90;;;9.70;59.10;;;;;;5039596;28;20044;-75
2022/04/04 05:00:45;;;;;;;1.98;1.02;;;9.80;59.20;;;;;;5061250;28;20124;-73
2022/04/04 05:03:27;;;;;;;2.20;1.00;;;9.80;59.20;;;;;;5057566;28;20056;-75
2022/04/04 05:05:56;;;;;;;3.13;1.00;;;9.80;59.20;;;;;;5057506;28;20044;-72
2022/04/04 05:08:23;;;;;;;1.55;0.98;;;9.80;59.20;;;;;;5027753;28;20785;-72
2022/04/04 05:10:51;;;;;;;1.40;0.90;;;9.80;59.20;;;;;;5050493;28;20073;-74
2022/04/04 05:13:19;;;;;;;1.65;1.10;;;9.80;59.20;;;;;;5032536;28;20131;-71
2022/04/04 05:15:46;;;;;;;2.55;1.25;;;9.70;59.10;;;;;;5055608;28;20391;-75
2022/04/04 05:18:13;;;;;;;2.08;1.00;;;9.80;59.20;;;;;;5037417;28;20125;-73
2022/04/04 05:20:40;;;;;;;2.40;1.17;;;9.80;59.10;;;;;;5052132;28;20135;-72
2022/04/04 05:23:08;;;;;;;1.30;1.00;;;9.80;59.10;;;;;;5060385;28;20041;-73
2022/04/04 05:25:37;;;;;;;1.98;0.90;;;9.70;59.10;;;;;;5036718;28;20569;-74
2022/04/04 05:28:04;;;;;;;1.30;0.80;;;9.70;59.10;;;;;;5050788;28;20040;-75
2022/04/04 05:30:31;;;;;;;2.17;0.98;;;9.80;59.10;;;;;;5030705;28;20033;-76
2022/04/04 05:33:00;;;;;;;1.55;0.90;;;9.70;59.00;;;;;;5041520;28;20485;-73
2022/04/04 05:35:27;;;;;;;1.50;0.90;;;9.80;59.10;;;;;;5048587;28;20578;-74
2022/04/04 05:37:54;;;;;;;1.85;0.98;;;9.80;59.10;;;;;;5029109;28;20056;-74
2022/04/04 05:40:24;;;;;;;1.45;0.95;;;9.80;59.10;;;;;;5056555;28;20076;-72
2022/04/04 05:42:52;;;;;;;1.50;1.10;;;9.80;59.10;;;;;;5041080;28;20048;-75
2022/04/04 05:45:19;;;;;;;1.65;1.10;;;9.80;59.10;;;;;;5057341;28;20128;-76
2022/04/04 05:47:47;;;;;;;1.60;1.13;;;9.80;59.10;;;;;;5058606;28;20040;-73
2022/04/04 05:50:18;;;;;;;1.90;1.20;;;9.80;59.10;;;;;;5059557;28;20076;-78
2022/04/04 05:52:46;;;;;;;1.90;1.10;;;9.70;59.00;;;;;;5058955;28;20054;-74
2022/04/04 05:55:13;;;;;;;1.80;1.10;;;9.80;59.10;;;;;;5040050;28;20127;-73
2022/04/04 05:57:42;;;;;;;1.30;0.90;;;9.80;59.10;;;;;;5056295;28;20044;-74
2022/04/04 06:00:13;;;;;;;2.17;1.08;;;9.80;59.10;;;;;;5059220;28;20115;-77
2022/04/04 06:02:41;;;;;;;2.80;1.02;;;9.80;59.20;;;;;;5059296;28;20093;-74
2022/04/04 06:05:11;;;;;;;2.20;1.33;;;9.80;59.10;;;;;;5039700;28;20040;-76
2022/04/04 06:07:39;;;;;;;2.38;1.05;;;9.70;59.00;;;;;;5053683;28;20052;-73
2022/04/04 06:10:08;;;;;;;1.90;1.20;;;9.80;59.10;;;;;;5040761;28;20416;-75
2022/04/04 06:12:35;;;;;;;1.45;1.00;;;9.70;59.00;;;;;;5043419;28;20044;-72
2022/04/04 06:15:04;;;;;;;1.85;1.00;;;9.80;59.10;;;;;;5063231;28;20709;-77
2022/04/04 06:17:31;;;;;;;2.35;1.20;;;9.80;59.10;;;;;;5065449;28;20068;-73
2022/04/04 06:19:58;;;;;;;1.70;1.10;;;9.80;59.20;;;;;;5058286;28;20047;-74
2022/04/04 06:22:25;;;;;;;1.77;1.10;;;9.80;59.20;;;;;;5061138;28;20052;-75
2022/04/04 06:24:52;;;;;;;1.70;1.20;;;9.80;59.20;;;;;;5064715;28;20040;-73
2022/04/04 06:27:19;;;;;;;2.67;1.48;;;9.80;59.20;;;;;;5069182;28;20052;-72
2022/04/04 06:29:46;;;;;;;2.00;1.30;;;9.70;59.20;;;;;;5080895;28;20021;-76
2022/04/04 06:32:15;;;;;;;2.25;1.40;;;9.80;59.20;;;;;;5059225;28;20045;-75
2022/04/04 06:34:41;;;;;;;1.95;1.40;;;9.80;59.20;;;;;;5057311;28;20051;-74
2022/04/04 06:37:10;;;;;;;2.50;1.40;;;9.80;59.20;;;;;;5053957;28;20647;-76
2022/04/04 06:39:37;;;;;;;2.50;1.30;;;9.80;59.30;;;;;;5058706;28;20046;-75
2022/04/04 06:42:04;;;;;;;2.75;1.20;;;9.80;59.30;;;;;;5062199;28;20044;-75
2022/04/04 06:44:32;;;;;;;2.95;1.40;;;9.80;59.90;;;;;;5039578;28;20126;-75
2022/04/04 06:46:59;;;;;;;2.28;1.20;;;9.80;59.30;;;;;;5050887;28;20041;-74
2022/04/04 06:49:28;;;;;;;2.75;1.60;;;9.80;59.30;;;;;;5068234;28;20051;-74
2022/04/04 06:51:56;;;;;;;2.83;1.52;;;9.80;59.40;;;;;;5061645;28;20623;-75
2022/04/04 06:54:23;;;;;;;3.00;1.48;;;9.80;59.40;;;;;;5054712;28;20052;-74
2022/04/04 06:56:52;;;;;;;1.95;1.20;;;9.80;59.30;;;;;;5054993;28;20126;-76
2022/04/04 06:59:19;;;;;;;2.28;1.60;;;9.80;59.30;;;;;;5056970;28;20056;-74
2022/04/04 07:01:46;;;;;;;1.92;1.17;;;9.80;59.40;;;;;;5048819;28;20037;-76
2022/04/04 07:04:13;;;;;;;3.70;1.45;;;9.80;59.50;;;;;;5057669;28;20048;-76
2022/04/04 07:06:42;;;;;;;2.22;1.58;;;9.80;59.50;;;;;;5058464;28;20044;-75
2022/04/04 07:09:09;;;;;;;2.67;1.70;;;9.80;59.50;;;;;;5056770;28;20048;-75
2022/04/04 07:11:38;;;;;;;3.13;1.70;;;9.80;59.50;;;;;;5034116;28;20051;-76
2022/04/04 07:14:06;;;;;;;1.95;1.35;;;9.80;59.50;;;;;;5055909;28;20102;-75
2022/04/04 07:16:33;;;;;;;3.47;1.70;;;9.80;59.40;;;;;;5054572;28;20044;-73
2022/04/04 07:19:00;;;;;;;2.65;1.52;;;9.80;59.40;;;;;;5050243;28;20040;-75
2022/04/04 07:21:28;;;;;;;2.55;1.50;;;9.80;59.40;;;;;;5055625;28;20048;-74
2022/04/04 07:23:56;;;;;;;2.35;1.50;;;9.80;59.40;;;;;;5058019;28;20036;-73
2022/04/04 07:26:23;;;;;;;3.00;1.60;;;9.80;59.40;;;;;;5058018;28;20056;-74
2022/04/04 07:28:51;;;;;;;4.35;1.52;;;9.90;59.70;;;;;;5052945;28;20037;-74
2022/04/04 07:31:18;;;;;;;6.88;1.70;;;9.90;59.90;;;;;;5054919;28;20052;-73
2022/04/04 07:33:45;;;;;;;2.50;1.38;;;9.90;60.00;;;;;;5051644;28;20590;-74
2022/04/04 07:36:12;;;;;;;10.02;1.70;;;9.90;60.40;;;;;;5049956;28;20049;-73
2022/04/04 07:38:39;;;;;;;5.15;3.30;;;9.90;60.70;;;;;;5049038;28;20102;-74
2022/04/04 07:41:07;;;;;;;3.92;3.03;;;9.70;61.20;;;;;;5039704;28;20071;-73
2022/04/04 07:43:35;;;;;;;6.45;2.30;;;9.70;61.10;;;;;;5056935;28;20044;-73
2022/04/04 07:46:02;;;;;;;6.57;1.90;;;9.70;60.90;;;;;;5039002;28;20057;-74
2022/04/04 07:48:32;;;;;;;4.50;1.70;;;9.80;61.00;;;;;;5055497;28;20399;-74
2022/04/04 07:50:58;;;;;;;4.70;2.00;;;9.90;61.30;;;;;;5054280;28;20040;-74
2022/04/04 07:53:26;;;;;;;4.65;1.70;;;9.90;61.20;;;;;;5053022;28;20056;-73
2022/04/04 07:55:53;;;;;;;4.57;1.90;;;10.00;59.90;;;;;;5058131;28;20120;-74
2022/04/04 07:58:22;;;;;;;11.23;2.30;;;10.00;60.00;;;;;;5055852;28;20041;-75
2022/04/04 08:00:49;;;;;;;4.15;2.20;;;10.00;60.30;;;;;;5053339;28;20044;-74
2022/04/04 08:03:16;;;;;;;3.17;2.03;;;9.90;61.40;;;;;;5059354;28;20131;-71
2022/04/04 08:05:42;;;;;;;3.83;2.20;;;10.00;59.90;;;;;;5055847;28;20122;-74
2022/04/04 08:08:09;;;;;;;4.45;2.40;;;9.90;61.20;;;;;;5053535;28;20102;-74
2022/04/04 08:10:37;;;;;;;3.72;2.20;;;10.00;60.40;;;;;;5034434;28;20522;-73
2022/04/04 08:13:04;;;;;;;4.22;2.03;;;10.00;60.20;;;;;;5053283;28;20040;-75
2022/04/04 08:15:32;;;;;;;4.20;2.00;;;10.00;60.30;;;;;;5050386;28;20076;-73
2022/04/04 08:17:59;;;;;;;5.32;2.20;;;10.00;60.30;;;;;;5056562;28;20041;-76
2022/04/04 08:20:26;;;;;;;3.20;1.80;;;10.00;60.30;;;;;;5041233;28;20052;-74
2022/04/04 08:22:53;;;;;;;2.97;2.00;;;10.00;60.30;;;;;;5032064;28;20623;-74
2022/04/04 08:25:21;;;;;;;2.85;1.98;;;9.90;61.50;;;;;;5064571;28;20044;-74
2022/04/04 08:27:48;;;;;;;2.90;2.05;;;10.00;60.30;;;;;;5067605;28;20143;-73
2022/04/04 08:30:17;;;;;;;3.05;1.90;;;10.00;60.00;;;;;;5057724;28;20098;-74
2022/04/04 08:32:47;;;;;;;2.75;1.90;;;9.90;61.30;;;;;;5053343;28;20045;-75
2022/04/04 08:35:16;;;;;;;3.88;1.92;;;10.00;60.10;;;;;;5033365;28;20048;-75
2022/04/04 08:37:44;;;;;;;4.18;1.77;;;9.90;61.20;;;;;;5052106;28;20055;-73
2022/04/04 08:40:14;;;;;;;3.67;1.90;;;10.00;60.20;;;;;;5055751;28;20068;-74
2022/04/04 08:42:41;;;;;;;4.28;1.67;;;10.00;60.10;;;;;;5053858;28;20104;-75
2022/04/04 08:45:11;;;;;;;4.60;1.92;;;10.00;60.10;;;;;;5059172;28;20037;-74
2022/04/04 08:47:40;;;;;;;2.53;1.73;;;10.00;60.20;;;;;;5056468;28;20052;-73
2022/04/04 08:50:09;;;;;;;3.42;1.75;;;10.00;60.10;;;;;;5037276;28;20796;-74
2022/04/04 08:52:38;;;;;;;3.35;1.85;;;10.00;60.10;;;;;;5046925;28;20040;-74
2022/04/04 08:55:06;;;;;;;3.85;1.80;;;10.00;60.10;;;;;;5038558;28;20640;-74
2022/04/04 08:57:32;;;;;;;3.85;1.80;;;10.00;60.10;;;;;;5050621;28;20045;-75
2022/04/04 09:00:00;;;;;;;2.67;1.65;;;9.90;61.10;;;;;;5035517;28;20072;-74
2022/04/04 09:02:26;;;;;;;3.15;1.70;;;10.00;60.30;;;;;;5036978;28;20401;-75
2022/04/04 09:04:54;;;;;;;3.08;1.80;;;10.00;60.20;;;;;;5057578;28;20091;-73
2022/04/04 09:07:22;;;;;;;3.03;1.67;;;10.00;60.40;;;;;;5054266;28;20040;-72
2022/04/04 09:09:52;;;;;;;3.85;1.77;;;10.00;60.20;;;;;;5058194;28;20145;-74
2022/04/04 09:12:22;;;;;;;3.50;1.70;;;10.00;60.30;;;;;;5050739;28;20068;-73
2022/04/04 09:14:51;;;;;;;3.33;1.55;;;10.00;60.30;;;;;;5032439;28;20742;-76
2022/04/04 09:17:19;;;;;;;2.72;1.70;;;9.90;61.40;;;;;;5047535;28;20051;-74
2022/04/04 09:19:46;;;;;;;3.25;1.58;;;10.00;60.50;;;;;;5055970;28;20096;-75
2022/04/04 09:22:15;;;;;;;2.65;1.60;;;10.00;60.50;;;;;;5045741;28;20056;-72
2022/04/04 09:24:52;;;;;;;2.38;1.50;;;10.00;60.40;;;;;;5045261;28;20033;-76
2022/04/04 09:27:24;;;;;;;2.80;1.40;;;10.00;60.30;;;;;;5049205;28;20056;-76
2022/04/04 09:29:53;;;;;;;;;;;10.00;60.50;;;;;;5049069;28;20080;-74
2022/04/04 09:32:20;;;;;;;7.35;3.47;;;10.00;60.30;;;;;;5049697;28;19921;-73
2022/04/04 09:34:52;;;;;;;4.82;2.97;;;9.90;62.10;;;;;;5043834;28;20044;-73
2022/04/04 09:37:19;;;;;;;4.18;1.92;;;9.80;61.90;;;;;;5055232;28;20109;-77
2022/04/04 09:39:48;;;;;;;6.45;2.40;;;9.90;61.90;;;;;;5062420;28;20120;-74
2022/04/04 09:42:16;;;;;;;10.73;2.88;;;9.90;62.00;;;;;;5059961;28;20052;-75
2022/04/04 09:44:56;;;;;;;11.18;2.92;;;10.00;60.80;;;;;;5048608;28;20064;-75
2022/04/04 09:47:23;;;;;;;12.13;3.63;;;10.00;61.20;;;;;;5055792;28;20044;-73
2022/04/04 09:49:50;;;;;;;14.70;2.67;;;10.00;61.40;;;;;;5030299;28;20796;-74
2022/04/04 09:52:17;;;;;;;6.95;2.92;;;10.00;61.20;;;;;;5053968;28;20053;-74
2022/04/04 09:54:44;;;;;;;6.72;2.67;;;10.00;61.00;;;;;;5046059;28;20040;-74
2022/04/04 09:57:15;;;;;;;8.35;2.53;;;10.00;61.00;;;;;;5055693;28;20069;-73
2022/04/04 09:59:42;;;;;;;8.80;2.85;;;10.00;60.70;;;;;;5049961;28;20045;-75
2022/04/04 10:02:13;;;;;;;8.60;2.92;;;9.90;62.40;;;;;;5052341;28;20047;-72
2022/04/04 10:04:43;;;;;;;6.70;2.70;;;9.90;62.40;;;;;;5058612;28;20048;-74
2022/04/04 10:07:12;;;;;;;5.50;2.83;;;9.90;62.20;;;;;;5052242;28;20127;-74
2022/04/04 10:09:39;;;;;;;7.63;3.10;;;9.90;62.30;;;;;;5054533;28;20056;-76
2022/04/04 10:12:08;;;;;;;7.53;3.00;;;9.90;62.40;;;;;;5059378;28;20044;-73
2022/04/04 10:14:39;;;;;;;6.55;3.10;;;9.90;62.70;;;;;;5056134;28;20127;-74
2022/04/04 10:17:06;;;;;;;3.63;2.72;;;9.90;63.20;;;;;;5055439;28;20068;-75
2022/04/04 10:19:34;;;;;;;4.00;2.83;;;9.90;63.90;;;;;;5056132;28;20059;-73
2022/04/04 10:22:01;;;;;;;5.65;3.10;;;9.90;64.10;;;;;;5053371;28;20097;-73
2022/04/04 10:24:29;;;;;;;6.95;3.00;;;9.90;64.10;;;;;;5062029;28;20037;-74
2022/04/04 10:26:58;;;;;;;6.50;3.05;;;9.90;64.30;;;;;;5060245;28;20053;-75
2022/04/04 10:29:40;;;;;;;4.55;2.78;;;9.90;64.60;;;;;;5055673;28;20041;-74
2022/04/04 10:32:23;;;;;;;5.47;3.25;;;9.90;65.20;;;;;;5054144;28;20064;-75
2022/04/04 10:34:51;;;;;;;5.75;3.35;;;9.90;65.20;;;;;;5064249;28;20505;-74
2022/04/04 10:37:30;;;;;;;4.97;3.13;;;9.80;65.50;;;;;;5041629;28;20045;-72
2022/04/04 10:39:57;;;;;;;4.97;3.10;;;9.80;65.70;;;;;;5059514;28;20036;-73
2022/04/04 10:42:31;;;;;;;4.50;3.30;;;9.80;65.90;;;;;;5062953;28;20047;-75
2022/04/04 10:45:02;;;;;;;4.93;3.40;;;9.80;66.50;;;;;;5052911;28;20058;-74
2022/04/04 10:47:30;;;;;;;3.53;2.78;;;9.80;66.60;;;;;;5032228;28;20143;-74
2022/04/04 10:49:59;;;;;;;5.43;3.53;;;9.80;67.10;;;;;;5044742;28;20052;-76
2022/04/04 10:52:39;;;;;;;5.85;3.70;;;9.80;67.40;;;;;;5050458;28;20040;-74
2022/04/04 10:55:29;;;;;;;4.95;3.38;;;9.80;67.60;;;;;;5038931;28;20056;-76
2022/04/04 10:57:59;;;;;;;6.25;3.55;;;9.80;68.00;;;;;;5056284;28;20129;-76
2022/04/04 11:00:34;;;;;;;6.07;3.60;;;9.80;68.40;;;;;;5053541;28;20049;-72
2022/04/04 11:03:01;;;;;;;4.25;3.20;;;9.80;68.40;;;;;;5056686;28;20041;-74
2022/04/04 11:09:11;;;;;;;4.35;3.15;;;9.80;68.70;;;;;;5055363;28;20048;-74
2022/04/04 11:11:54;;;;;;;4.25;3.00;;;9.80;68.70;;;;;;5052608;28;20322;-75
2022/04/04 11:14:43;;;;;;;4.38;3.03;;;9.80;68.80;;;;;;5032650;28;20068;-76
2022/04/04 11:17:43;;;;;;;4.10;3.30;;;9.80;69.10;;;;;;5040679;28;20483;-73
2022/04/04 11:20:33;;;;;;;3.85;2.90;;;9.80;69.60;;;;;;5045556;28;20106;-74
2022/04/04 11:23:03;;;;;;;4.95;3.38;;;9.80;69.80;;;;;;5060412;28;20487;-75
2022/04/04 11:26:01;;;;;;;4.50;3.08;;;9.80;70.00;;;;;;5056233;28;20045;-74
2022/04/04 11:28:36;;;;;;;4.78;2.95;;;9.70;70.60;;;;;;5044448;28;20508;-75
2022/04/04 11:31:07;;;;;;;4.22;3.10;;;9.70;70.10;;;;;;5021469;28;20041;-74
2022/04/04 11:34:11;;;;;;;5.35;3.45;;;9.70;70.30;;;;;;5057769;28;20201;-74
2022/04/04 11:36:54;;;;;;;7.20;3.15;;;9.70;70.80;;;;;;5058676;28;20107;-74
2022/04/04 11:39:21;;;;;;;4.60;2.97;;;9.70;70.90;;;;;;4972226;28;20082;-75
2022/04/04 11:41:51;;;;;;;7.68;3.13;;;9.80;70.20;;;;;;4974083;28;20039;-73
2022/04/04 11:44:50;;;;;;;4.18;2.70;;;9.70;71.20;;;;;;5060748;28;20074;-75
2022/04/04 11:47:39;;;;;;;7.10;2.80;;;9.80;70.90;;;;;;4980845;28;20070;-74
2022/04/04 11:50:26;;;;;;;4.25;2.70;;;9.70;72.40;;;;;;4890042;28;20062;-74
2022/04/04 11:52:58;;;;;;;4.00;2.60;;;9.70;72.00;;;;;;4945544;28;20055;-74
2022/04/04 11:55:42;;;;;;;4.40;2.80;;;9.70;71.60;;;;;;5030311;28;20052;-73
2022/04/04 11:58:12;;;;;;;7.20;2.85;;;9.70;71.10;;;;;;5063651;28;20044;-74
2022/04/04 12:00:42;;;;;;;3.22;2.55;;;9.80;71.40;;;;;;5062791;28;20093;-76
2022/04/04 12:03:10;;;;;;;3.03;2.72;;;9.80;71.30;;;;;;5054540;28;20046;-74
2022/04/04 12:06:06;;;;;;;3.85;2.90;;;9.80;73.00;;;;;;5060810;28;20044;-75
2022/04/04 12:08:36;;;;;;;4.75;2.90;;;9.80;71.70;;;;;;5054035;28;20135;-77
2022/04/04 12:11:05;;;;;;;5.40;2.97;;;9.80;71.70;;;;;;5055584;28;20040;-75
2022/04/04 12:13:32;;;;;;;5.22;2.88;;;9.80;72.20;;;;;;5046545;28;20071;-76
2022/04/04 12:15:59;;;;;;;6.53;2.90;;;9.80;71.90;;;;;;5057319;28;20052;-73
2022/04/04 12:18:27;;;;;;;6.85;2.95;;;9.80;73.30;;;;;;5057268;28;20048;-75
2022/04/04 12:20:56;;;;;;;6.75;2.80;;;9.80;73.20;;;;;;5031748;28;20044;-72
2022/04/04 12:26:13;;;;;;;5.00;3.00;;;9.80;73.10;;;;;;5058834;28;20531;-76
2022/04/04 12:28:52;;;;;;;5.50;2.90;;;9.80;73.10;;;;;;5059670;28;20065;-75
2022/04/04 12:31:21;;;;;;;4.28;3.05;;;9.80;73.30;;;;;;5059409;28;20048;-73
2022/04/04 12:33:53;;;;;;;8.13;3.10;;;9.80;73.00;;;;;;5037774;28;20049;-74
2022/04/04 12:36:26;;;;;;;6.10;2.85;;;9.80;73.00;;;;;;5062807;28;20126;-75
2022/04/04 12:38:58;;;;;;;5.40;3.13;;;9.80;73.10;;;;;;5057904;28;20048;-74
2022/04/04 12:41:27;;;;;;;3.95;3.15;;;9.70;73.00;;;;;;5054495;28;20033;-75
2022/04/04 12:44:00;;;;;;;4.75;2.90;;;9.80;73.20;;;;;;5051625;28;20041;-73
2022/04/04 12:46:29;;;;;;;4.82;3.20;;;9.80;73.20;;;;;;5052481;28;20056;-76
2022/04/04 12:49:09;;;;;;;3.60;2.97;;;9.80;73.40;;;;;;5053161;28;20040;-73
2022/04/04 12:51:36;;;;;;;3.92;3.10;;;9.80;73.40;;;;;;5059287;28;20046;-75
2022/04/04 12:54:03;;;;;;;4.82;3.03;;;9.80;73.80;;;;;;5065231;28;20064;-73
2022/04/04 12:56:47;;;;;;;3.25;2.85;;;9.70;73.30;;;;;;5055692;28;20098;-74
2022/04/04 12:59:14;;;;;;;4.50;3.20;;;9.70;73.50;;;;;;5054166;28;20049;-73
2022/04/04 13:01:41;;;;;;;3.60;3.17;;;9.70;73.50;;;;;;5056401;28;20039;-75
2022/04/04 13:04:20;;;;;;;3.80;3.15;;;9.70;73.80;;;;;;5053304;28;20053;-75
2022/04/04 13:06:47;;;;;;;3.67;3.00;;;9.70;73.80;;;;;;5053532;28;20052;-75
2022/04/04 13:09:23;;;;;;;3.67;3.08;;;9.70;73.90;;;;;;5054090;28;20045;-74
2022/04/04 13:11:52;;;;;;;3.88;3.20;;;9.70;74.70;;;;;;5054585;28;20040;-73
2022/04/04 13:14:22;;;;;;;4.18;3.17;;;9.70;74.60;;;;;;5053981;28;20616;-76
2022/04/04 13:16:52;;;;;;;4.13;2.85;;;9.70;74.80;;;;;;5038211;28;20499;-73